Time;durP1;ratioP1;P1;durP2;ratioP2;P2;SDS_P1;SDS_P2;PMS_P1;PMS_P2;Temp;Humidity;BMP_temperature;BMP_pressure;BME280_temperature;BME280_humidity;BME280_pressure;Samples;Min_cycle;Max_cycle;Signal;HPM_P1;HPM_P2
2021/01/12 00:02:23;;;;;;;12.70;7.37;;;;;;;0.73;90.36;99989.38;5046676;28;20063;-72
2021/01/12 00:04:50;;;;;;;12.57;7.47;;;;;;;0.73;90.33;99981.59;5048319;28;20066;-72
2021/01/12 00:07:21;;;;;;;13.63;7.70;;;;;;;0.70;90.63;99971.19;5049005;28;20050;-72
2021/01/12 00:09:48;;;;;;;12.93;7.87;;;;;;;0.70;90.93;99960.78;5048513;28;20523;-72
2021/01/12 00:12:16;;;;;;;12.77;7.83;;;;;;;0.75;90.14;99962.53;5045185;28;20036;-72
2021/01/12 00:14:42;;;;;;;13.67;7.60;;;;;;;0.76;90.16;99961.72;5049309;28;20036;-72
2021/01/12 00:17:08;;;;;;;13.33;7.20;;;;;;;0.82;90.02;99961.72;5046569;28;20032;-72
2021/01/12 00:19:36;;;;;;;14.30;8.13;;;;;;;0.80;89.56;99947.84;5052571;28;20028;-72
2021/01/12 00:22:06;;;;;;;13.63;8.07;;;;;;;0.79;89.70;99950.44;5056585;28;20068;-72
2021/01/12 00:24:34;;;;;;;10.27;6.20;;;;;;;0.79;89.77;99953.91;5052767;28;20606;-72
2021/01/12 00:27:01;;;;;;;13.50;7.17;;;;;;;0.80;90.13;99937.44;5067708;28;20524;-72
2021/01/12 00:29:27;;;;;;;12.03;7.07;;;;;;;0.82;89.80;99959.13;5054476;28;20079;-72
2021/01/12 00:31:53;;;;;;;11.80;7.20;;;;;;;0.87;89.15;99935.78;5050565;28;20045;-72
2021/01/12 00:34:19;;;;;;;11.67;7.30;;;;;;;0.85;89.72;99934.91;5066294;28;20024;-72
2021/01/12 00:36:47;;;;;;;14.03;8.60;;;;;;;0.81;90.30;99927.91;5053108;28;20137;-72
2021/01/12 00:39:14;;;;;;;12.53;7.80;;;;;;;0.83;89.61;99927.06;5050390;28;20037;-72
2021/01/12 00:41:41;;;;;;;12.70;6.57;;;;;;;0.86;90.04;99926.25;5066935;28;20043;-72
2021/01/12 00:44:07;;;;;;;12.90;6.80;;;;;;;0.88;89.58;99918.44;5048507;28;20057;-72
2021/01/12 00:46:34;;;;;;;13.87;7.67;;;;;;;0.89;90.27;99917.56;5050793;28;20121;-72
2021/01/12 00:49:00;;;;;;;13.77;7.57;;;;;;;0.90;90.26;99912.38;5059078;28;20041;-72
2021/01/12 00:51:34;;;;;;;11.13;6.90;;;;;;;0.88;90.38;99905.44;5066759;28;20695;-72
2021/01/12 00:54:00;;;;;;;14.10;7.38;;;;;;;0.87;90.02;99917.56;5049727;28;20029;-72
2021/01/12 00:56:45;;;;;;;12.63;7.07;;;;;;;0.87;89.99;99914.97;5035963;28;20044;-72
2021/01/12 00:59:11;;;;;;;14.03;7.30;;;;;;;0.83;90.28;99911.47;5067180;28;20045;-72
2021/01/12 01:01:38;;;;;;;13.27;7.50;;;;;;;0.83;90.89;99911.47;5067355;28;20040;-72
2021/01/12 01:04:08;;;;;;;12.17;7.60;;;;;;;0.84;90.81;99901.94;5051315;28;20032;-72
2021/01/12 01:06:35;;;;;;;12.40;7.03;;;;;;;0.86;91.03;99888.97;5067603;28;20041;-72
2021/01/12 01:09:01;;;;;;;13.50;8.17;;;;;;;0.95;89.98;99892.50;5065628;28;20052;-72
2021/01/12 01:11:27;;;;;;;13.73;7.37;;;;;;;1.02;89.68;99894.28;5065956;28;20044;-72
2021/01/12 01:13:53;;;;;;;11.57;6.87;;;;;;;0.95;90.37;99889.03;5054365;28;20064;-72
2021/01/12 01:16:20;;;;;;;13.00;7.97;;;;;;;0.95;90.59;99894.22;5067604;28;20071;-72
2021/01/12 01:18:46;;;;;;;13.13;7.57;;;;;;;0.95;91.27;99881.22;5049421;28;20124;-72
2021/01/12 01:21:13;;;;;;;10.90;7.23;;;;;;;0.96;90.57;99877.75;5049121;28;20039;-72
2021/01/12 01:23:39;;;;;;;13.87;7.60;;;;;;;0.96;90.30;99870.81;5041884;28;20051;-72
2021/01/12 01:26:06;;;;;;;14.70;8.17;;;;;;;0.97;90.35;99871.69;5053500;28;20045;-72
2021/01/12 01:28:32;;;;;;;13.70;8.03;;;;;;;0.92;90.82;99866.44;5046795;28;20044;-72
2021/01/12 01:30:58;;;;;;;16.17;7.70;;;;;;;0.96;90.73;99864.75;5050763;28;20051;-72
2021/01/12 01:33:25;;;;;;;14.40;8.27;;;;;;;0.91;90.97;99856.03;5032526;28;20093;-72
2021/01/12 01:35:51;;;;;;;11.60;6.87;;;;;;;0.83;91.49;99843.00;5066171;28;20064;-72
2021/01/12 01:38:17;;;;;;;13.50;7.40;;;;;;;0.80;92.32;99853.38;5052960;28;20052;-72
2021/01/12 01:40:43;;;;;;;12.23;7.50;;;;;;;0.87;91.74;99846.50;5064931;28;20067;-72
2021/01/12 01:43:15;;;;;;;15.17;8.13;;;;;;;0.79;92.69;99849.91;5050588;28;20496;-69
2021/01/12 01:45:42;;;;;;;14.27;7.73;;;;;;;0.76;93.00;99849.03;5049275;28;20033;-69
2021/01/12 01:48:09;;;;;;;11.87;7.13;;;;;;;0.69;94.39;99844.66;5066956;28;20044;-72
2021/01/12 01:50:35;;;;;;;13.83;7.23;;;;;;;0.62;95.50;99843.75;5033039;28;20044;-72
2021/01/12 01:53:01;;;;;;;13.03;8.20;;;;;;;0.53;96.75;99839.34;5033679;28;20040;-72
2021/01/12 01:55:27;;;;;;;13.23;8.23;;;;;;;0.42;98.54;99835.81;5054550;28;20062;-74
2021/01/12 01:57:53;;;;;;;15.37;9.67;;;;;;;0.44;99.67;99828.91;5068377;28;20111;-72
2021/01/12 02:00:22;;;;;;;17.63;8.80;;;;;;;0.32;100.00;99825.34;5068170;28;20668;-77
2021/01/12 02:03:01;;;;;;;15.23;8.80;;;;;;;0.21;100.00;99822.66;5040883;28;20044;-74
2021/01/12 02:05:29;;;;;;;17.03;9.13;;;;;;;0.18;100.00;99817.44;5067366;28;20044;-73
2021/01/12 02:07:58;;;;;;;16.53;9.37;;;;;;;0.08;100.00;99816.47;5051959;28;20036;-74
2021/01/12 02:10:25;;;;;;;17.67;10.33;;;;;;;-0.02;100.00;99817.28;5051352;28;20468;-72
2021/01/12 02:13:01;;;;;;;18.10;9.97;;;;;;;-0.09;100.00;99797.28;5060244;28;20040;-73
2021/01/12 02:15:28;;;;;;;20.23;10.47;;;;;;;-0.21;100.00;99799.81;5049950;28;20072;-71
2021/01/12 02:17:54;;;;;;;19.73;9.80;;;;;;;-0.13;100.00;99791.22;5067735;28;20600;-76
2021/01/12 02:20:21;;;;;;;19.00;10.77;;;;;;;-0.24;100.00;99795.47;5047768;28;20036;-75
2021/01/12 02:23:30;;;;;;;18.77;10.83;;;;;;;-0.32;100.00;99782.41;5053117;28;20485;-73
2021/01/12 02:25:57;;;;;;;19.10;10.37;;;;;;;-0.34;100.00;99775.44;5042911;28;20064;-72
2021/01/12 02:28:23;;;;;;;22.60;11.37;;;;;;;-0.42;100.00;99770.22;5066717;28;20059;-74
2021/01/12 02:30:49;;;;;;;23.63;11.87;;;;;;;-0.39;100.00;99761.56;5067339;28;20444;-73
2021/01/12 02:33:16;;;;;;;21.13;12.17;;;;;;;-0.46;100.00;99765.84;5050143;28;20040;-71
2021/01/12 02:35:45;;;;;;;23.00;10.93;;;;;;;-0.47;100.00;99766.69;5049597;28;20372;-72
2021/01/12 02:38:12;;;;;;;21.27;12.10;;;;;;;-0.50;100.00;99756.28;5057321;28;20032;-75
2021/01/12 02:40:38;;;;;;;22.47;11.63;;;;;;;-0.44;100.00;99751.13;5076896;28;20479;-75
2021/01/12 02:43:04;;;;;;;19.60;11.83;;;;;;;-0.47;100.00;99742.47;5033506;28;20148;-73
2021/01/12 02:45:31;;;;;;;22.70;12.53;;;;;;;-0.44;100.00;99750.28;5056750;28;20374;-74
2021/01/12 02:47:58;;;;;;;21.27;11.70;;;;;;;-0.44;100.00;99742.50;5048269;22;20530;-74
2021/01/12 02:50:24;;;;;;;23.27;12.03;;;;;;;-0.49;100.00;99742.47;5005383;28;20096;-73
2021/01/12 02:52:50;;;;;;;23.50;12.43;;;;;;;-0.49;100.00;99721.72;5034327;28;20054;-73
2021/01/12 02:55:16;;;;;;;22.20;11.80;;;;;;;-0.47;100.00;99719.13;5027408;28;20220;-73
2021/01/12 02:57:42;;;;;;;21.67;11.60;;;;;;;-0.49;100.00;99715.66;5016838;28;20576;-73
2021/01/12 03:00:13;;;;;;;20.90;11.17;;;;;;;-0.48;100.00;99722.56;5035185;28;20049;-73
2021/01/12 03:02:40;;;;;;;24.90;12.13;;;;;;;-0.44;100.00;99708.75;5024180;28;20041;-74
2021/01/12 03:05:07;;;;;;;18.67;11.20;;;;;;;-0.46;100.00;99713.06;5009938;28;20514;-73
2021/01/12 03:07:34;;;;;;;21.13;11.43;;;;;;;-0.48;100.00;99694.91;5009042;28;20037;-73
2021/01/12 03:10:00;;;;;;;20.93;11.57;;;;;;;-0.44;100.00;99690.59;5014921;28;20041;-73
2021/01/12 03:12:26;;;;;;;20.83;11.47;;;;;;;-0.45;100.00;99694.91;5001768;28;20049;-73
2021/01/12 03:14:53;;;;;;;23.63;11.77;;;;;;;-0.47;100.00;99699.22;5020650;28;20033;-73
2021/01/12 03:17:19;;;;;;;22.13;11.57;;;;;;;-0.50;100.00;99683.66;5011003;28;20809;-73
2021/01/12 03:19:46;;;;;;;22.53;11.97;;;;;;;-0.51;100.00;99676.69;5016433;28;20095;-73
2021/01/12 03:22:12;;;;;;;21.87;12.90;;;;;;;-0.46;100.00;99672.41;5016826;28;20501;-73
2021/01/12 03:24:39;;;;;;;23.53;12.07;;;;;;;-0.51;100.00;99665.44;5021853;28;20115;-73
2021/01/12 03:27:05;;;;;;;24.00;12.33;;;;;;;-0.45;100.00;99670.69;5035746;28;20034;-74
2021/01/12 03:29:32;;;;;;;20.63;10.97;;;;;;;-0.41;100.00;99662.09;5013857;28;20045;-73
2021/01/12 03:31:59;;;;;;;22.23;12.93;;;;;;;-0.39;100.00;99639.63;4998627;28;20855;-73
2021/01/12 03:34:25;;;;;;;22.73;12.37;;;;;;;-0.34;100.00;99653.47;5017896;28;20418;-73
2021/01/12 03:36:51;;;;;;;22.17;11.30;;;;;;;-0.29;100.00;99654.38;5009769;28;20406;-74
2021/01/12 03:39:18;;;;;;;19.30;11.53;;;;;;;-0.30;100.00;99648.31;5034939;28;20564;-75
2021/01/12 03:41:44;;;;;;;18.87;10.93;;;;;;;-0.30;100.00;99626.69;5025864;28;20041;-74
2021/01/12 03:44:10;;;;;;;21.60;11.77;;;;;;;-0.28;100.00;99633.63;5040282;28;20512;-74
2021/01/12 03:46:36;;;;;;;21.60;12.00;;;;;;;-0.28;100.00;99631.03;5038332;28;20041;-74
2021/01/12 03:49:02;;;;;;;21.83;12.73;;;;;;;-0.27;100.00;99618.91;5018284;28;20037;-74
2021/01/12 03:51:29;;;;;;;24.40;12.63;;;;;;;-0.24;100.00;99620.69;5014310;28;20076;-73
2021/01/12 03:53:55;;;;;;;20.03;11.67;;;;;;;-0.19;100.00;99625.03;5031977;28;20087;-73
2021/01/12 03:56:21;;;;;;;22.03;12.70;;;;;;;-0.20;100.00;99606.84;5015717;28;20486;-74
2021/01/12 03:58:47;;;;;;;22.27;12.80;;;;;;;-0.26;100.00;99606.81;5016487;28;20135;-74
2021/01/12 04:01:14;;;;;;;23.97;13.53;;;;;;;-0.22;100.00;99598.19;5021493;28;20042;-74
2021/01/12 04:03:41;;;;;;;21.97;12.77;;;;;;;-0.16;100.00;99596.50;5034444;28;20045;-74
2021/01/12 04:06:15;;;;;;;24.20;12.30;;;;;;;-0.19;100.00;99603.41;5035490;28;20025;-73
2021/01/12 04:08:43;;;;;;;24.40;14.05;;;;;;;-0.16;100.00;99599.13;5026248;28;20061;-74
2021/01/12 04:11:10;;;;;;;22.17;12.40;;;;;;;-0.15;100.00;99605.16;5010641;28;20041;-75
2021/01/12 04:13:36;;;;;;;24.47;13.50;;;;;;;-0.12;100.00;99599.97;5038830;28;20079;-74
2021/01/12 04:16:03;;;;;;;23.23;12.67;;;;;;;-0.13;100.00;99591.31;5035067;28;20064;-74
2021/01/12 04:18:29;;;;;;;25.57;13.23;;;;;;;-0.09;100.00;99582.69;5037731;28;20040;-74
2021/01/12 04:20:55;;;;;;;23.27;12.10;;;;;;;-0.08;100.00;99589.63;5016196;28;20125;-75
2021/01/12 04:23:21;;;;;;;21.97;12.53;;;;;;;-0.02;100.00;99584.44;5047575;28;20095;-74
2021/01/12 04:25:48;;;;;;;20.57;12.07;;;;;;;-0.07;100.00;99574.94;5013001;28;20033;-75
2021/01/12 04:28:14;;;;;;;22.30;12.10;;;;;;;-0.09;100.00;99576.63;5016663;28;20168;-75
2021/01/12 04:30:40;;;;;;;23.70;13.47;;;;;;;-0.08;100.00;99581.84;5044398;28;20459;-75
2021/01/12 04:33:07;;;;;;;27.33;14.03;;;;;;;-0.08;100.00;99580.97;5013438;28;20052;-75
2021/01/12 04:35:33;;;;;;;21.73;12.27;;;;;;;-0.10;100.00;99575.75;5023889;28;20122;-74
2021/01/12 04:37:59;;;;;;;23.10;12.93;;;;;;;-0.11;100.00;99567.97;5043361;28;20121;-75
2021/01/12 04:40:25;;;;;;;23.73;13.63;;;;;;;-0.10;100.00;99561.91;5035608;28;20029;-74
2021/01/12 04:42:51;;;;;;;22.07;11.77;;;;;;;-0.08;100.00;99561.06;5029061;28;20467;-75
2021/01/12 04:45:18;;;;;;;27.20;14.13;;;;;;;-0.06;100.00;99550.69;5025418;28;20030;-75
2021/01/12 04:47:44;;;;;;;24.23;12.60;;;;;;;-0.05;100.00;99540.31;5031785;28;20064;-74
2021/01/12 04:50:11;;;;;;;21.97;12.00;;;;;;;-0.07;100.00;99549.84;5046550;28;20041;-74
2021/01/12 04:52:47;;;;;;;21.20;12.50;;;;;;;-0.03;100.00;99550.69;5015832;28;20065;-75
2021/01/12 04:55:14;;;;;;;23.00;12.80;;;;;;;-0.04;100.00;99547.22;5027679;28;20514;-75
2021/01/12 04:57:41;;;;;;;22.20;12.20;;;;;;;-0.04;100.00;99539.44;5021177;28;20044;-75
2021/01/12 05:00:12;;;;;;;19.97;12.13;;;;;;;-0.05;100.00;99539.44;5016915;28;20489;-75
2021/01/12 05:02:39;;;;;;;20.77;13.00;;;;;;;-0.05;100.00;99534.25;5012644;28;20038;-75
2021/01/12 05:05:07;;;;;;;24.57;14.33;;;;;;;-0.07;100.00;99534.25;5025009;28;20039;-75
2021/01/12 05:07:37;;;;;;;21.97;12.80;;;;;;;-0.06;100.00;99525.59;5016660;28;20060;-75
2021/01/12 05:10:09;;;;;;;21.27;12.67;;;;;;;-0.03;100.00;99523.00;5037332;28;20103;-75
2021/01/12 05:12:36;;;;;;;21.47;13.13;;;;;;;-0.04;100.00;99523.88;5011063;28;20711;-75
2021/01/12 05:15:02;;;;;;;23.30;12.47;;;;;;;0.02;100.00;99527.38;5013045;28;20041;-75
2021/01/12 05:17:32;;;;;;;25.53;12.97;;;;;;;-0.01;100.00;99510.03;5028002;28;20087;-75
2021/01/12 05:20:00;;;;;;;22.40;11.90;;;;;;;0.01;100.00;99510.06;5012282;28;20046;-75
2021/01/12 05:22:30;;;;;;;21.70;12.63;;;;;;;-0.02;100.00;99509.16;5011886;28;20037;-74
2021/01/12 05:25:19;;;;;;;22.80;13.07;;;;;;;-0.03;100.00;99512.63;5024477;28;20044;-74
2021/01/12 05:27:42;;;;;;;20.37;12.10;;;;;;;-0.04;100.00;99507.44;5019080;28;20044;-75
2021/01/12 05:30:09;;;;;;;23.20;11.93;;;;;;;-0.04;100.00;99497.03;5025117;28;20056;-75
2021/01/12 05:32:37;;;;;;;22.53;12.60;;;;;;;-0.02;100.00;99503.09;5028198;28;20502;-76
2021/01/12 05:35:05;;;;;;;24.07;13.07;;;;;;;-0.06;100.00;99494.44;5000310;28;20033;-76
2021/01/12 05:37:32;;;;;;;21.97;12.80;;;;;;;-0.08;100.00;99484.94;5012508;28;20124;-75
2021/01/12 05:40:02;;;;;;;23.90;13.37;;;;;;;-0.02;100.00;99490.13;4998542;28;20040;-75
2021/01/12 05:42:29;;;;;;;20.33;12.37;;;;;;;-0.03;100.00;99490.97;5019194;28;20049;-76
2021/01/12 05:44:56;;;;;;;19.03;11.87;;;;;;;-0.07;100.00;99491.84;4984114;28;20095;-76
2021/01/12 05:47:23;;;;;;;23.43;13.57;;;;;;;-0.07;100.00;99489.25;5011571;28;20041;-76
2021/01/12 05:49:51;;;;;;;24.23;13.90;;;;;;;-0.08;100.00;99490.97;5015431;28;20068;-75
2021/01/12 05:52:19;;;;;;;23.23;13.00;;;;;;;-0.08;100.00;99484.94;5031525;28;20115;-75
2021/01/12 05:54:53;;;;;;;23.57;13.13;;;;;;;0.02;100.00;99491.00;5020564;28;20468;-75
2021/01/12 05:57:23;;;;;;;21.15;12.95;;;;;;;0.02;100.00;99484.09;5014209;28;20029;-75
2021/01/12 05:59:52;;;;;;;21.90;13.37;;;;;;;-0.06;100.00;99484.06;5032233;28;20041;-76
2021/01/12 06:02:23;;;;;;;20.90;11.90;;;;;;;-0.08;100.00;99474.53;5018913;28;20564;-75
2021/01/12 06:04:52;;;;;;;20.47;12.33;;;;;;;-0.07;100.00;99481.47;5015651;28;20127;-75
2021/01/12 06:07:18;;;;;;;21.33;12.57;;;;;;;-0.13;100.00;99471.06;5015072;28;20052;-75
2021/01/12 06:09:45;;;;;;;24.47;13.00;;;;;;;-0.12;100.00;99468.44;5009961;28;20037;-75
2021/01/12 06:12:12;;;;;;;23.00;13.57;;;;;;;-0.12;100.00;99468.44;5017390;28;20049;-76
2021/01/12 06:14:38;;;;;;;21.53;13.00;;;;;;;-0.05;100.00;99472.81;5002667;28;20572;-76
2021/01/12 06:17:09;;;;;;;19.70;12.27;;;;;;;-0.03;100.00;99465.03;5005322;28;20336;-76
2021/01/12 06:19:39;;;;;;;22.57;13.03;;;;;;;-0.08;100.00;99466.75;5017416;28;20048;-76
2021/01/12 06:22:23;;;;;;;20.33;12.77;;;;;;;-0.09;100.00;99468.44;5020443;28;20029;-76
2021/01/12 06:24:53;;;;;;;25.55;12.82;;;;;;;-0.03;100.00;99465.03;5021877;28;20041;-77
2021/01/12 06:27:24;;;;;;;23.20;12.90;;;;;;;-0.08;100.00;99461.56;5019942;28;20096;-76
2021/01/12 06:29:51;;;;;;;24.77;12.80;;;;;;;-0.08;100.00;99465.03;5031700;28;20069;-76
2021/01/12 06:32:19;;;;;;;24.73;13.70;;;;;;;-0.09;100.00;99458.06;5016408;28;20037;-76
2021/01/12 06:34:46;;;;;;;23.07;12.90;;;;;;;-0.06;100.00;99465.03;5027098;28;20032;-76
2021/01/12 06:37:15;;;;;;;24.50;14.53;;;;;;;-0.06;100.00;99447.72;5026047;28;20048;-76
2021/01/12 06:39:47;;;;;;;27.37;14.80;;;;;;;0.00;100.00;99459.84;5014131;28;20041;-76
2021/01/12 06:42:14;;;;;;;29.67;16.13;;;;;;;-0.05;100.00;99448.56;5035240;28;20052;-76
2021/01/12 06:44:41;;;;;;;30.27;15.83;;;;;;;-0.06;100.00;99450.31;5042112;28;20364;-76
2021/01/12 06:47:09;;;;;;;26.73;15.43;;;;;;;0.00;100.00;99452.06;5021879;28;20580;-77
2021/01/12 06:49:36;;;;;;;29.43;16.10;;;;;;;-0.03;100.00;99445.13;5001198;28;20041;-76
2021/01/12 06:52:07;;;;;;;26.60;14.60;;;;;;;-0.02;100.00;99436.47;5020140;28;20033;-77
2021/01/12 06:54:38;;;;;;;28.70;16.37;;;;;;;0.02;100.00;99444.28;5022727;28;20052;-76
2021/01/12 06:57:09;;;;;;;25.30;14.27;;;;;;;0.04;100.00;99438.22;5024157;28;20072;-76
2021/01/12 06:59:43;;;;;;;30.73;17.00;;;;;;;0.12;100.00;99433.03;5017731;28;20095;-77
2021/01/12 07:02:17;;;;;;;;;;;;;;;0.09;100.00;99433.91;5007879;28;20447;-76
2021/01/12 07:05:06;;;;;;;27.50;14.98;;;;;;;0.10;100.00;99435.63;5012881;28;19929;-76
2021/01/12 07:07:55;;;;;;;26.40;15.90;;;;;;;0.09;100.00;99438.25;5028383;28;20036;-76
2021/01/12 07:10:23;;;;;;;31.00;16.13;;;;;;;0.22;100.00;99429.59;5032294;28;20037;-76
2021/01/12 07:12:50;;;;;;;29.23;16.20;;;;;;;0.20;100.00;99436.50;5021739;28;20048;-76
2021/01/12 07:15:21;;;;;;;28.33;16.17;;;;;;;0.19;100.00;99429.59;5016277;28;20087;-76
2021/01/12 07:17:49;;;;;;;30.23;15.60;;;;;;;0.25;100.00;99435.66;5010823;28;20045;-77
2021/01/12 07:20:36;;;;;;;26.30;14.00;;;;;;;0.24;100.00;99428.72;5012434;28;20465;-76
2021/01/12 07:23:10;;;;;;;27.07;16.27;;;;;;;0.27;100.00;99425.28;5031747;28;20575;-76
2021/01/12 07:25:46;;;;;;;31.48;15.48;;;;;;;0.24;100.00;99423.53;4995405;28;20041;-76
2021/01/12 07:28:15;;;;;;;33.13;16.50;;;;;;;0.23;100.00;99418.31;5006406;28;20516;-75
2021/01/12 07:30:43;;;;;;;30.80;17.40;;;;;;;0.21;100.00;99420.94;5014308;28;20613;-76
2021/01/12 07:33:24;;;;;;;34.27;17.33;;;;;;;0.28;100.00;99422.69;5023706;28;20037;-76
2021/01/12 07:35:52;;;;;;;28.10;16.47;;;;;;;0.30;100.00;99424.41;5027202;28;20037;-76
2021/01/12 07:38:20;;;;;;;29.93;16.27;;;;;;;0.32;100.00;99428.72;5031363;28;20583;-75
2021/01/12 07:40:46;;;;;;;29.30;17.23;;;;;;;0.31;100.00;99421.81;5014974;28;20091;-76
2021/01/12 07:43:17;;;;;;;28.83;15.77;;;;;;;0.33;100.00;99414.88;5007438;28;20490;-76
2021/01/12 07:45:45;;;;;;;35.37;18.20;;;;;;;0.37;100.00;99414.03;5015299;28;20040;-76
2021/01/12 07:48:12;;;;;;;35.20;17.33;;;;;;;0.35;100.00;99415.75;5028617;28;20107;-76
2021/01/12 07:50:41;;;;;;;32.43;18.20;;;;;;;0.40;100.00;99414.00;5035352;28;20044;-77
2021/01/12 07:53:08;;;;;;;34.10;18.87;;;;;;;0.34;100.00;99419.22;5014662;28;20076;-76
2021/01/12 07:55:38;;;;;;;29.87;17.63;;;;;;;0.35;100.00;99420.94;5014639;28;20829;-74
2021/01/12 07:58:05;;;;;;;29.20;16.37;;;;;;;0.35;100.00;99415.75;5008297;28;20491;-75
2021/01/12 08:00:32;;;;;;;30.37;17.13;;;;;;;0.41;100.00;99414.88;5004580;28;20044;-74
2021/01/12 08:02:58;;;;;;;28.80;17.03;;;;;;;0.46;100.00;99416.63;5005925;28;20041;-74
2021/01/12 08:05:26;;;;;;;31.47;17.03;;;;;;;0.46;100.00;99411.41;5000772;28;20121;-74
2021/01/12 08:08:03;;;;;;;26.80;15.40;;;;;;;0.49;100.00;99414.00;5033027;28;20054;-74
2021/01/12 08:10:30;;;;;;;28.43;15.87;;;;;;;0.47;100.00;99410.56;4996695;28;20076;-75
2021/01/12 08:13:09;;;;;;;28.67;15.70;;;;;;;0.51;100.00;99404.50;4995727;28;20041;-74
2021/01/12 08:15:36;;;;;;;27.50;15.87;;;;;;;0.53;100.00;99405.38;5035290;28;20106;-74
2021/01/12 08:18:10;;;;;;;28.47;15.47;;;;;;;0.52;100.00;99406.22;5013841;28;20399;-80
2021/01/12 08:20:37;;;;;;;30.05;16.38;;;;;;;0.53;100.00;99407.97;5019959;28;20037;-76
2021/01/12 08:23:03;;;;;;;30.73;16.77;;;;;;;0.62;100.00;99408.81;5003159;28;20067;-73
2021/01/12 08:25:33;;;;;;;29.53;17.17;;;;;;;0.66;100.00;99402.75;5024281;28;20038;-74
2021/01/12 08:28:00;;;;;;;28.60;16.47;;;;;;;0.62;100.00;99404.50;5018531;28;20543;-74
2021/01/12 08:30:34;;;;;;;31.70;15.87;;;;;;;0.59;100.00;99407.09;5016074;28;20037;-74
2021/01/12 08:33:13;;;;;;;30.13;15.93;;;;;;;0.65;100.00;99394.09;5010323;28;20597;-74
2021/01/12 08:35:49;;;;;;;24.90;14.73;;;;;;;0.62;100.00;99396.69;4996308;28;20095;-73
2021/01/12 08:38:15;;;;;;;26.87;15.17;;;;;;;0.70;100.00;99407.09;5005428;28;20037;-74
2021/01/12 08:40:45;;;;;;;30.50;16.63;;;;;;;0.65;100.00;99409.69;5017862;28;20116;-74
2021/01/12 08:43:14;;;;;;;26.13;14.80;;;;;;;0.70;100.00;99400.16;5013716;28;20042;-73
2021/01/12 08:45:42;;;;;;;24.03;14.53;;;;;;;0.64;100.00;99409.69;5018568;28;20042;-73
2021/01/12 08:48:10;;;;;;;24.07;15.17;;;;;;;0.71;100.00;99401.03;4990211;28;20075;-74
2021/01/12 08:50:37;;;;;;;23.67;13.80;;;;;;;0.66;100.00;99408.81;5020013;28;20132;-74
2021/01/12 08:53:03;;;;;;;30.13;15.60;;;;;;;0.63;100.00;99402.75;5005399;28;20041;-74
2021/01/12 08:55:29;;;;;;;25.17;13.73;;;;;;;0.65;100.00;99401.88;5023576;28;20099;-73
2021/01/12 08:57:57;;;;;;;25.37;14.10;;;;;;;0.74;100.00;99404.47;5013838;28;20033;-74
2021/01/12 09:00:27;;;;;;;23.43;14.07;;;;;;;0.70;100.00;99402.75;5013351;28;20523;-73
2021/01/12 09:02:55;;;;;;;23.23;13.10;;;;;;;0.69;100.00;99397.56;5033749;28;20045;-74
2021/01/12 09:05:21;;;;;;;22.67;13.00;;;;;;;0.68;100.00;99390.63;5020165;28;20660;-75
2021/01/12 09:08:05;;;;;;;22.57;12.90;;;;;;;0.67;100.00;99391.47;5021585;28;20037;-74
2021/01/12 09:10:35;;;;;;;22.83;12.20;;;;;;;0.62;100.00;99382.84;5006270;28;20072;-75
2021/01/12 09:13:01;;;;;;;23.00;12.80;;;;;;;0.67;100.00;99388.88;5023528;28;20096;-74
2021/01/12 09:15:30;;;;;;;22.40;12.40;;;;;;;0.65;100.00;99391.47;4998756;28;20121;-74
2021/01/12 09:18:13;;;;;;;22.80;12.60;;;;;;;0.61;100.00;99396.69;5015567;28;20041;-74
2021/01/12 09:20:39;;;;;;;20.73;11.90;;;;;;;0.64;100.00;99394.09;5019869;28;20041;-74
2021/01/12 09:23:15;;;;;;;18.53;12.53;;;;;;;0.63;100.00;99390.63;5018271;28;20061;-74
2021/01/12 09:25:50;;;;;;;19.80;12.13;;;;;;;0.63;100.00;99376.78;5037706;28;20040;-74
2021/01/12 09:28:17;;;;;;;19.17;11.63;;;;;;;0.64;100.00;99391.50;4996000;28;20046;-74
2021/01/12 09:30:45;;;;;;;17.97;11.27;;;;;;;0.67;100.00;99394.06;5003497;28;20149;-74
2021/01/12 09:33:24;;;;;;;18.47;10.93;;;;;;;0.70;100.00;99397.56;5007993;28;20048;-74
2021/01/12 09:36:02;;;;;;;18.17;11.50;;;;;;;0.65;100.00;99388.03;5005445;28;20152;-74
2021/01/12 09:38:54;;;;;;;20.63;11.00;;;;;;;0.60;100.00;99388.03;5032995;28;20103;-73
2021/01/12 09:41:25;;;;;;;20.97;12.27;;;;;;;0.62;100.00;99394.09;5018698;28;20045;-74
2021/01/12 09:43:53;;;;;;;20.73;12.23;;;;;;;0.59;100.00;99390.63;5007015;28;20138;-74
2021/01/12 09:46:19;;;;;;;17.60;11.23;;;;;;;0.61;100.00;99394.09;4999100;28;20036;-74
2021/01/12 09:48:46;;;;;;;19.67;12.73;;;;;;;0.61;100.00;99391.50;5008959;28;20491;-73
2021/01/12 09:51:13;;;;;;;21.97;11.80;;;;;;;0.59;100.00;99396.72;5005819;28;20044;-73
2021/01/12 09:53:40;;;;;;;18.27;11.73;;;;;;;0.56;100.00;99392.34;5008906;28;20044;-73
2021/01/12 09:56:15;;;;;;;17.43;10.17;;;;;;;0.57;100.00;99393.22;5019688;28;20099;-73
2021/01/12 09:58:45;;;;;;;19.33;11.30;;;;;;;0.55;100.00;99393.22;5038642;28;20507;-73
2021/01/12 10:01:14;;;;;;;19.83;13.53;;;;;;;0.60;100.00;99400.19;5036368;28;20045;-73
2021/01/12 10:03:45;;;;;;;16.83;10.83;;;;;;;0.59;100.00;99390.63;5039896;28;20485;-76
2021/01/12 10:06:18;;;;;;;17.77;11.83;;;;;;;0.56;100.00;99396.69;5042540;28;20140;-73
2021/01/12 10:08:46;;;;;;;16.27;10.87;;;;;;;0.56;100.00;99396.69;5014016;28;20047;-76
2021/01/12 10:11:14;;;;;;;20.20;12.13;;;;;;;0.54;100.00;99388.03;5015656;28;20037;-76
2021/01/12 10:13:43;;;;;;;15.23;9.93;;;;;;;0.56;100.00;99389.75;5017584;28;20041;-74
2021/01/12 10:16:09;;;;;;;20.97;11.97;;;;;;;0.53;100.00;99391.50;5015300;28;20033;-74
2021/01/12 10:18:35;;;;;;;26.17;15.67;;;;;;;0.54;100.00;99394.09;4998810;28;20183;-74
2021/01/12 10:21:01;;;;;;;22.07;12.20;;;;;;;0.61;100.00;99389.78;5002010;28;20490;-74
2021/01/12 10:23:27;;;;;;;18.13;10.23;;;;;;;0.56;100.00;99389.75;5015483;28;20083;-74
2021/01/12 10:25:54;;;;;;;14.73;10.30;;;;;;;0.53;100.00;99386.31;5019425;28;20490;-74
2021/01/12 10:28:20;;;;;;;16.20;10.87;;;;;;;0.52;100.00;99388.03;5040623;28;20064;-74
2021/01/12 10:30:46;;;;;;;18.13;11.10;;;;;;;0.55;100.00;99377.63;5015346;28;20049;-73
2021/01/12 10:33:12;;;;;;;21.37;12.13;;;;;;;0.62;100.00;99380.25;5004619;22;20041;-74
2021/01/12 10:35:39;;;;;;;18.30;10.80;;;;;;;0.65;100.00;99381.09;5042584;28;20045;-74
2021/01/12 10:38:05;;;;;;;17.33;9.90;;;;;;;0.72;100.00;99380.22;5040008;28;20186;-73
2021/01/12 10:40:31;;;;;;;16.30;9.80;;;;;;;0.71;100.00;99373.28;5027251;28;20410;-73
2021/01/12 10:42:57;;;;;;;18.77;11.70;;;;;;;0.72;100.00;99382.81;5019777;28;20065;-74
2021/01/12 10:45:23;;;;;;;17.73;10.07;;;;;;;0.73;100.00;99381.09;5006936;28;20109;-73
2021/01/12 10:47:50;;;;;;;15.30;9.10;;;;;;;0.75;100.00;99381.94;5026308;28;20045;-74
2021/01/12 10:50:20;;;;;;;13.47;8.97;;;;;;;0.75;100.00;99392.34;5008673;28;20034;-74
2021/01/12 10:52:46;;;;;;;15.57;9.33;;;;;;;0.68;100.00;99388.03;5008136;28;20041;-74
2021/01/12 10:55:13;;;;;;;14.20;9.17;;;;;;;0.69;100.00;99375.03;5028437;28;20722;-74
2021/01/12 10:57:43;;;;;;;15.87;10.03;;;;;;;0.73;100.00;99363.75;5008002;28;20042;-74
2021/01/12 11:00:10;;;;;;;13.83;9.67;;;;;;;0.69;100.00;99371.56;5022013;28;20046;-74
2021/01/12 11:02:36;;;;;;;14.57;9.33;;;;;;;0.65;100.00;99370.69;5007272;28;20075;-74
2021/01/12 11:05:03;;;;;;;13.40;10.03;;;;;;;0.61;100.00;99365.53;5010786;28;20064;-74
2021/01/12 11:07:31;;;;;;;11.97;7.73;;;;;;;0.57;100.00;99368.09;5008553;28;20061;-74
2021/01/12 11:09:58;;;;;;;14.03;8.60;;;;;;;0.54;100.00;99359.44;5010139;28;20041;-74
2021/01/12 11:12:24;;;;;;;22.97;13.17;;;;;;;0.53;100.00;99361.19;5020965;28;20117;-74
2021/01/12 11:14:51;;;;;;;40.37;27.20;;;;;;;0.59;100.00;99359.44;5006406;28;20057;-74
2021/01/12 11:17:17;;;;;;;53.73;34.40;;;;;;;0.62;100.00;99349.91;5007526;28;20053;-74
2021/01/12 11:19:43;;;;;;;24.00;16.20;;;;;;;0.64;100.00;99357.72;4992798;28;20048;-74
2021/01/12 11:22:09;;;;;;;23.20;12.37;;;;;;;0.63;100.00;99351.66;5007594;28;20096;-74
2021/01/12 11:24:35;;;;;;;21.43;11.33;;;;;;;0.66;100.00;99354.22;5035054;28;20103;-73